createdAt,value
2022-12-31T00:01:05.662Z,10.70
2022-12-31T00:03:10.402Z,10.70
2022-12-31T00:05:14.597Z,10.80
2022-12-31T00:07:17.443Z,10.80
2022-12-31T00:09:20.221Z,10.80
2022-12-31T00:11:24.628Z,10.80
2022-12-31T00:13:27.473Z,10.90
2022-12-31T00:15:30.422Z,10.90
2022-12-31T00:17:34.540Z,11.00
2022-12-31T00:19:37.322Z,11.00
2022-12-31T00:21:40.596Z,11.00
2022-12-31T00:23:43.829Z,11.10
2022-12-31T00:25:46.562Z,11.10
2022-12-31T00:27:49.349Z,11.10
2022-12-31T00:29:52.108Z,11.10
2022-12-31T00:31:54.833Z,11.10
2022-12-31T00:34:00.095Z,11.00
2022-12-31T00:36:11.134Z,11.00
2022-12-31T00:38:13.928Z,11.00
2022-12-31T00:40:16.791Z,11.00
2022-12-31T00:42:19.729Z,11.00
2022-12-31T00:44:22.525Z,11.00
2022-12-31T00:46:25.685Z,11.00
2022-12-31T00:48:29.071Z,11.00
2022-12-31T00:50:33.416Z,11.00
2022-12-31T00:52:36.291Z,11.10
2022-12-31T00:54:39.272Z,11.10
2022-12-31T00:56:42.205Z,11.10
2022-12-31T00:58:45.501Z,11.10
2022-12-31T01:00:48.460Z,11.10
2022-12-31T01:02:51.442Z,11.20
2022-12-31T01:04:54.254Z,11.20
2022-12-31T01:06:58.730Z,11.20
2022-12-31T01:09:04.087Z,11.20
2022-12-31T01:11:28.817Z,11.20
2022-12-31T01:13:31.760Z,11.20
2022-12-31T01:15:35.674Z,11.30
2022-12-31T01:17:38.462Z,11.30
2022-12-31T01:19:41.625Z,11.30
2022-12-31T01:21:46.535Z,11.30
2022-12-31T01:23:50.891Z,11.30
2022-12-31T01:25:53.835Z,11.40
2022-12-31T01:27:56.640Z,11.40
2022-12-31T01:29:59.452Z,11.40
2022-12-31T01:32:02.298Z,11.40
2022-12-31T01:34:05.465Z,11.40
2022-12-31T01:36:11.658Z,11.40
2022-12-31T01:38:14.472Z,11.40
2022-12-31T01:40:18.846Z,11.50
2022-12-31T01:42:21.904Z,11.50
2022-12-31T01:44:51.003Z,11.50
2022-12-31T01:46:56.822Z,11.50
2022-12-31T01:49:06.418Z,11.60
2022-12-31T01:51:10.814Z,11.50
2022-12-31T01:53:15.941Z,11.60
2022-12-31T01:55:25.329Z,11.60
2022-12-31T01:57:28.833Z,11.60
2022-12-31T01:59:34.875Z,11.60
2022-12-31T02:01:39.703Z,11.60
2022-12-31T02:03:42.634Z,11.70
2022-12-31T02:05:50.717Z,11.70
2022-12-31T02:07:55.034Z,11.70
2022-12-31T02:09:58.615Z,11.70
2022-12-31T02:12:02.755Z,11.70
2022-12-31T02:14:10.531Z,11.70
2022-12-31T02:16:20.342Z,11.80
2022-12-31T02:18:32.643Z,11.80
2022-12-31T02:21:03.002Z,11.80
2022-12-31T02:23:35.566Z,11.80
2022-12-31T02:25:56.084Z,11.80
2022-12-31T02:28:19.753Z,11.90
2022-12-31T02:30:25.716Z,11.90
2022-12-31T02:32:43.758Z,12.00
2022-12-31T02:34:51.160Z,12.00
2022-12-31T02:36:56.041Z,12.00
2022-12-31T02:39:00.402Z,12.10
2022-12-31T02:41:03.270Z,12.10
2022-12-31T02:43:06.121Z,12.10
2022-12-31T02:45:11.815Z,12.10
2022-12-31T02:47:26.380Z,12.10
2022-12-31T02:49:39.819Z,12.10
2022-12-31T02:51:48.239Z,12.20
2022-12-31T02:54:12.669Z,12.10
2022-12-31T02:56:22.363Z,12.20
2022-12-31T02:58:46.184Z,12.20
2022-12-31T03:01:09.685Z,12.20
2022-12-31T03:03:14.186Z,12.30
2022-12-31T03:05:20.265Z,12.30
2022-12-31T03:07:25.179Z,12.30
2022-12-31T03:09:28.144Z,12.40
2022-12-31T03:11:56.886Z,12.40
2022-12-31T03:13:59.664Z,12.50
2022-12-31T03:16:02.537Z,12.50
2022-12-31T03:18:07.639Z,12.50
2022-12-31T03:20:29.772Z,12.60
2022-12-31T03:22:32.033Z,12.60
2022-12-31T03:24:52.107Z,12.60
2022-12-31T03:26:55.087Z,12.60
2022-12-31T03:28:58.012Z,12.60
2022-12-31T03:31:02.597Z,12.60
2022-12-31T03:33:06.738Z,12.60
2022-12-31T03:35:11.942Z,12.60
2022-12-31T03:37:14.683Z,12.60
2022-12-31T03:39:17.422Z,12.60
2022-12-31T03:41:20.348Z,12.70
2022-12-31T03:43:23.645Z,12.70
2022-12-31T03:45:26.421Z,12.70
2022-12-31T03:47:29.329Z,12.60
2022-12-31T03:49:32.180Z,12.60
2022-12-31T03:51:36.182Z,12.60
2022-12-31T03:53:38.917Z,12.60
2022-12-31T03:55:41.652Z,12.60
2022-12-31T03:57:44.466Z,12.60
2022-12-31T03:59:47.411Z,12.70
2022-12-31T04:01:50.287Z,12.70
2022-12-31T04:03:53.324Z,12.80
2022-12-31T04:05:56.912Z,12.80
2022-12-31T04:08:00.990Z,12.90
2022-12-31T04:10:03.929Z,12.90
2022-12-31T04:12:07.380Z,12.90
2022-12-31T04:14:11.130Z,12.90
2022-12-31T04:16:13.924Z,12.90
2022-12-31T04:18:16.680Z,12.90
2022-12-31T04:20:19.532Z,12.90
2022-12-31T04:22:22.343Z,12.90
2022-12-31T04:24:26.429Z,12.90
2022-12-31T04:26:29.371Z,12.90
2022-12-31T04:28:32.309Z,12.90
2022-12-31T04:30:37.439Z,12.90
2022-12-31T04:32:40.176Z,12.90
2022-12-31T04:34:42.958Z,12.90
2022-12-31T04:36:45.693Z,12.80
2022-12-31T04:38:48.418Z,12.80
2022-12-31T04:41:09.941Z,12.80
2022-12-31T04:43:12.716Z,12.90
2022-12-31T04:45:15.571Z,12.80
2022-12-31T04:47:23.390Z,12.90
2022-12-31T04:49:26.653Z,12.90
2022-12-31T04:51:31.055Z,12.90
2022-12-31T04:53:33.876Z,12.90
2022-12-31T04:55:36.781Z,13.00
2022-12-31T04:57:42.130Z,13.00
2022-12-31T04:59:44.975Z,13.00
2022-12-31T05:01:47.793Z,13.00
2022-12-31T05:03:51.107Z,13.00
2022-12-31T05:05:54.586Z,13.00
2022-12-31T05:07:57.459Z,13.00
2022-12-31T05:10:00.196Z,13.00
2022-12-31T05:12:02.976Z,13.00
2022-12-31T05:14:07.376Z,13.00
2022-12-31T05:16:10.975Z,13.00
2022-12-31T05:18:14.225Z,13.00
2022-12-31T05:20:17.096Z,13.00
2022-12-31T05:22:32.037Z,13.00
2022-12-31T05:24:35.101Z,13.00
2022-12-31T05:26:37.994Z,13.10
2022-12-31T05:28:40.732Z,13.10
2022-12-31T05:30:45.645Z,13.10
2022-12-31T05:32:48.885Z,13.10
2022-12-31T05:34:51.817Z,13.10
2022-12-31T05:36:54.573Z,13.10
2022-12-31T05:38:57.772Z,13.10
2022-12-31T05:41:02.311Z,13.20
2022-12-31T05:43:05.049Z,13.20
2022-12-31T05:45:08.913Z,13.20
2022-12-31T05:47:13.017Z,13.20
2022-12-31T05:49:15.767Z,13.30
2022-12-31T05:51:18.558Z,13.30
2022-12-31T05:53:21.479Z,13.40
2022-12-31T05:55:24.343Z,13.30
2022-12-31T05:57:27.192Z,13.40
2022-12-31T05:59:29.925Z,13.40
2022-12-31T06:01:32.721Z,13.40
2022-12-31T06:03:36.920Z,13.40
2022-12-31T06:05:43.408Z,13.40
2022-12-31T06:07:46.434Z,13.40
2022-12-31T06:09:49.335Z,13.40
2022-12-31T06:11:52.416Z,13.40
2022-12-31T06:13:55.227Z,13.40
2022-12-31T06:15:58.093Z,13.40
2022-12-31T06:18:00.920Z,13.40
2022-12-31T06:20:12.241Z,13.40
2022-12-31T06:22:15.909Z,13.40
2022-12-31T06:24:18.944Z,13.50
2022-12-31T06:26:21.907Z,13.50
2022-12-31T06:28:24.953Z,13.60
2022-12-31T06:30:29.919Z,13.60
2022-12-31T06:32:32.925Z,13.60
2022-12-31T06:34:35.814Z,13.60
2022-12-31T06:36:40.082Z,13.50
2022-12-31T06:38:44.172Z,13.50
2022-12-31T06:40:47.018Z,13.50
2022-12-31T06:42:53.319Z,13.50
2022-12-31T06:44:58.856Z,13.50
2022-12-31T06:47:01.598Z,13.50
2022-12-31T06:49:04.359Z,13.50
2022-12-31T06:51:15.058Z,13.50
2022-12-31T06:53:21.074Z,13.50
2022-12-31T06:55:24.465Z,13.50
2022-12-31T06:57:28.039Z,13.50
2022-12-31T06:59:33.057Z,13.50
2022-12-31T07:01:50.307Z,13.50
2022-12-31T07:04:00.385Z,13.60
2022-12-31T07:06:10.522Z,13.60
2022-12-31T07:08:25.717Z,13.60
2022-12-31T07:10:40.013Z,13.60
2022-12-31T07:12:59.369Z,13.60
2022-12-31T07:15:10.949Z,13.70
2022-12-31T07:17:27.118Z,13.70
2022-12-31T07:19:38.490Z,13.70
2022-12-31T07:21:42.560Z,13.70
2022-12-31T07:23:47.441Z,13.80
2022-12-31T07:25:55.522Z,13.80
2022-12-31T07:28:09.448Z,13.80
2022-12-31T07:30:15.624Z,13.80
2022-12-31T07:32:29.731Z,13.80
2022-12-31T07:34:46.813Z,13.70
2022-12-31T07:37:02.026Z,13.80
2022-12-31T07:39:11.567Z,13.70
2022-12-31T07:41:22.717Z,13.80
2022-12-31T07:43:34.012Z,13.80
2022-12-31T07:45:42.196Z,13.80
2022-12-31T07:47:48.730Z,13.70
2022-12-31T07:49:52.803Z,13.80
2022-12-31T07:51:56.658Z,13.80
2022-12-31T07:53:59.611Z,13.80
2022-12-31T07:56:06.448Z,13.80
2022-12-31T07:58:20.173Z,13.80
2022-12-31T08:00:23.854Z,13.80
2022-12-31T08:02:43.409Z,13.80
2022-12-31T08:04:56.254Z,13.90
2022-12-31T08:07:08.264Z,13.90
2022-12-31T08:09:24.958Z,13.90
2022-12-31T08:11:36.432Z,13.90
2022-12-31T08:13:41.228Z,14.00
2022-12-31T08:15:44.508Z,14.00
2022-12-31T08:17:47.731Z,14.00
2022-12-31T08:19:51.235Z,14.10
2022-12-31T08:22:09.745Z,14.10
2022-12-31T08:24:23.982Z,14.10
2022-12-31T08:26:37.654Z,14.10
2022-12-31T08:28:56.892Z,14.10
2022-12-31T08:31:05.911Z,14.10
2022-12-31T08:33:15.974Z,14.20
2022-12-31T08:35:29.499Z,14.20
2022-12-31T08:37:38.008Z,14.20
2022-12-31T08:39:56.112Z,14.20
2022-12-31T08:42:04.640Z,14.30
2022-12-31T08:44:18.461Z,14.30
2022-12-31T08:46:25.583Z,14.30
2022-12-31T08:48:36.949Z,14.30
2022-12-31T08:50:40.344Z,14.30
2022-12-31T08:52:44.028Z,14.30
2022-12-31T08:54:47.313Z,14.30
2022-12-31T08:56:58.747Z,14.30
2022-12-31T08:59:15.722Z,14.30
2022-12-31T09:01:24.374Z,14.30
2022-12-31T09:03:41.615Z,14.30
2022-12-31T09:05:58.059Z,14.30
2022-12-31T09:08:18.226Z,14.30
2022-12-31T09:10:27.948Z,14.30
2022-12-31T09:12:38.959Z,14.30
2022-12-31T09:14:47.332Z,14.30
2022-12-31T09:17:00.565Z,14.30
2022-12-31T09:19:03.319Z,14.40
2022-12-31T09:21:06.644Z,14.40
2022-12-31T09:23:09.908Z,14.40
2022-12-31T09:25:17.930Z,14.40
2022-12-31T09:27:28.074Z,14.40
2022-12-31T09:29:52.500Z,14.40
2022-12-31T09:32:00.988Z,14.40
2022-12-31T09:34:09.205Z,14.40
2022-12-31T09:36:20.177Z,14.30
2022-12-31T09:38:28.998Z,14.30
2022-12-31T09:40:47.869Z,14.30
2022-12-31T09:43:03.320Z,14.30
2022-12-31T09:45:38.737Z,14.40
2022-12-31T09:48:06.371Z,14.40
2022-12-31T09:50:39.209Z,14.40
2022-12-31T09:53:07.104Z,14.40
2022-12-31T09:55:51.646Z,14.40
2022-12-31T10:18:38.566Z,14.70
2022-12-31T10:20:51.947Z,14.80
2022-12-31T10:23:21.255Z,14.90
2022-12-31T10:25:49.225Z,15.00
2022-12-31T10:28:00.574Z,15.10
2022-12-31T10:30:13.748Z,15.10
2022-12-31T10:32:32.077Z,15.20
2022-12-31T10:34:45.594Z,15.20
2022-12-31T10:36:57.615Z,15.20
2022-12-31T10:39:13.471Z,15.30
2022-12-31T10:41:53.536Z,15.30
2022-12-31T10:44:43.808Z,15.30
2022-12-31T10:47:35.123Z,15.20
2022-12-31T10:50:05.649Z,15.20
2022-12-31T10:52:51.475Z,15.20
2022-12-31T10:55:46.367Z,15.20
2022-12-31T10:58:25.213Z,15.20
2022-12-31T11:00:31.861Z,15.20
2022-12-31T11:03:10.981Z,15.20
2022-12-31T11:05:49.622Z,15.20
2022-12-31T11:08:03.808Z,15.20
2022-12-31T11:10:55.866Z,15.30
2022-12-31T11:13:34.493Z,15.30
2022-12-31T11:15:58.440Z,15.30
2022-12-31T11:18:11.489Z,15.30
2022-12-31T11:21:07.148Z,15.30
2022-12-31T11:23:25.755Z,15.30
2022-12-31T11:25:35.570Z,15.40
2022-12-31T11:27:55.272Z,15.30
2022-12-31T11:30:12.114Z,15.40
2022-12-31T11:32:26.271Z,15.40
2022-12-31T11:35:02.572Z,15.40
2022-12-31T11:37:21.534Z,15.40
2022-12-31T11:39:40.661Z,15.40
2022-12-31T11:41:51.935Z,15.40
2022-12-31T11:44:06.015Z,15.40
2022-12-31T11:46:25.858Z,15.40
2022-12-31T11:48:40.140Z,15.40
2022-12-31T11:50:53.825Z,15.40
2022-12-31T11:53:10.770Z,15.40
2022-12-31T11:55:27.268Z,15.40
2022-12-31T11:57:38.480Z,15.40
2022-12-31T11:59:41.503Z,15.40
2022-12-31T12:01:53.219Z,15.40
2022-12-31T12:03:56.490Z,15.40
2022-12-31T12:06:00.279Z,15.40
2022-12-31T12:08:05.979Z,15.40
2022-12-31T12:10:22.475Z,15.40
2022-12-31T12:12:25.798Z,15.40
2022-12-31T12:14:33.450Z,15.40
2022-12-31T12:16:36.390Z,15.50
2022-12-31T12:18:43.432Z,15.50
2022-12-31T12:20:48.204Z,15.50
2022-12-31T12:22:52.989Z,15.50
2022-12-31T12:24:58.323Z,15.60
2022-12-31T12:27:02.837Z,15.60
2022-12-31T12:29:16.868Z,15.60
2022-12-31T12:31:22.113Z,15.60
2022-12-31T12:33:26.068Z,15.60
2022-12-31T12:35:31.638Z,15.60
2022-12-31T12:37:36.909Z,15.60
2022-12-31T12:39:39.874Z,15.60
2022-12-31T12:41:42.923Z,15.60
2022-12-31T12:43:47.408Z,15.60
2022-12-31T12:45:52.402Z,15.60
2022-12-31T12:47:58.501Z,15.60
2022-12-31T12:50:02.050Z,15.60
2022-12-31T12:52:22.668Z,15.60
2022-12-31T12:54:39.151Z,15.70
2022-12-31T12:56:50.243Z,15.70
2022-12-31T12:59:19.552Z,15.80
2022-12-31T13:01:35.131Z,15.90
2022-12-31T13:06:48.197Z,16.00
2022-12-31T13:09:10.105Z,16.00
2022-12-31T13:11:27.249Z,16.10
2022-12-31T13:13:43.741Z,16.10
2022-12-31T13:15:56.244Z,16.10
2022-12-31T13:18:16.142Z,16.10
2022-12-31T13:20:27.928Z,16.20
2022-12-31T13:22:38.774Z,16.20
2022-12-31T13:24:53.226Z,16.20
2022-12-31T13:27:07.037Z,16.20
2022-12-31T13:29:18.258Z,16.20
2022-12-31T13:31:27.438Z,16.20
2022-12-31T13:33:35.792Z,16.20
2022-12-31T13:35:49.419Z,16.20
2022-12-31T13:38:09.714Z,16.10
2022-12-31T13:40:20.956Z,16.10
2022-12-31T13:42:32.076Z,16.10
2022-12-31T13:44:42.703Z,16.00
2022-12-31T13:46:50.069Z,16.00
2022-12-31T13:48:57.492Z,16.00
2022-12-31T13:51:04.362Z,15.90
2022-12-31T13:53:17.660Z,15.90
2022-12-31T13:55:27.530Z,15.90
2022-12-31T13:57:46.702Z,15.90
2022-12-31T13:59:55.992Z,15.80
2022-12-31T14:02:09.302Z,15.80
2022-12-31T14:04:24.518Z,15.70
2022-12-31T14:06:37.330Z,15.70
2022-12-31T14:08:40.499Z,15.70
2022-12-31T14:10:56.173Z,15.70
2022-12-31T14:13:13.439Z,15.70
2022-12-31T14:15:23.907Z,15.70
2022-12-31T14:17:36.427Z,15.70
2022-12-31T14:19:52.691Z,15.70
2022-12-31T14:22:02.996Z,15.70
2022-12-31T14:24:13.419Z,15.70
2022-12-31T14:26:22.647Z,15.60
2022-12-31T14:28:29.869Z,15.60
2022-12-31T14:30:37.880Z,15.60
2022-12-31T14:32:58.962Z,15.60
2022-12-31T14:35:15.333Z,15.60
2022-12-31T14:37:28.221Z,15.60
2022-12-31T14:39:45.183Z,15.60
2022-12-31T14:41:58.110Z,15.50
2022-12-31T14:44:15.213Z,15.50
2022-12-31T14:46:25.850Z,15.40
2022-12-31T14:48:43.829Z,15.50
2022-12-31T14:50:47.393Z,15.40
2022-12-31T14:52:53.106Z,15.40
2022-12-31T14:55:01.401Z,15.30
2022-12-31T14:57:11.797Z,15.30
2022-12-31T14:59:26.165Z,15.20
2022-12-31T15:01:29.886Z,15.10
2022-12-31T15:03:45.062Z,15.10
2022-12-31T15:06:00.091Z,15.10
2022-12-31T15:08:22.065Z,15.00
2022-12-31T15:10:37.248Z,15.00
2022-12-31T15:13:05.933Z,15.00
2022-12-31T15:15:42.826Z,15.00
2022-12-31T15:17:57.511Z,15.00
2022-12-31T15:20:22.936Z,15.10
2022-12-31T15:22:38.892Z,15.10
2022-12-31T15:24:45.250Z,15.10
2022-12-31T15:26:53.958Z,15.10
2022-12-31T15:29:04.008Z,15.10
2022-12-31T15:31:18.614Z,15.00
2022-12-31T15:33:30.592Z,15.00
2022-12-31T15:35:46.128Z,15.00
2022-12-31T15:38:00.367Z,15.00
2022-12-31T15:40:18.518Z,14.90
2022-12-31T15:42:38.609Z,14.90
2022-12-31T15:44:49.543Z,14.90
2022-12-31T15:46:57.273Z,14.80
2022-12-31T15:49:06.805Z,14.80
2022-12-31T15:51:18.451Z,14.70
2022-12-31T15:53:29.561Z,14.70
2022-12-31T15:55:38.496Z,14.70
2022-12-31T15:57:43.291Z,14.60
2022-12-31T15:59:47.738Z,14.60
2022-12-31T16:01:50.961Z,14.70
2022-12-31T16:03:59.332Z,14.70
2022-12-31T16:06:04.176Z,14.70
2022-12-31T16:08:08.505Z,14.70
2022-12-31T16:10:22.408Z,14.60
2022-12-31T16:12:33.225Z,14.70
2022-12-31T16:14:40.105Z,14.70
2022-12-31T16:16:53.907Z,14.70
2022-12-31T16:18:57.767Z,14.70
2022-12-31T16:21:01.868Z,14.70
2022-12-31T16:23:21.844Z,14.70
2022-12-31T16:25:31.196Z,14.70
2022-12-31T16:27:36.919Z,14.60
2022-12-31T16:29:49.317Z,14.60
2022-12-31T16:31:55.576Z,14.60
2022-12-31T16:34:06.691Z,14.50
2022-12-31T16:36:20.162Z,14.50
2022-12-31T16:38:33.419Z,14.50
2022-12-31T16:40:36.269Z,14.50
2022-12-31T16:42:44.249Z,14.60
2022-12-31T16:44:47.798Z,14.60
2022-12-31T16:46:51.356Z,14.70
2022-12-31T16:48:56.475Z,14.70
2022-12-31T16:50:59.583Z,14.60
2022-12-31T16:53:06.123Z,14.60
2022-12-31T16:55:15.985Z,14.70
2022-12-31T16:57:25.324Z,14.70
2022-12-31T16:59:35.370Z,14.70
2022-12-31T17:01:39.717Z,14.60
2022-12-31T17:03:45.467Z,14.60
2022-12-31T17:05:57.955Z,14.60
2022-12-31T17:08:31.949Z,14.60
2022-12-31T17:10:37.000Z,14.60
2022-12-31T17:13:17.439Z,14.60
2022-12-31T17:15:07.975Z,14.70
2022-12-31T17:17:22.129Z,14.70
2022-12-31T17:19:35.638Z,14.70
2022-12-31T17:21:38.469Z,14.70
2022-12-31T17:23:42.877Z,14.70
2022-12-31T17:25:47.063Z,14.60
2022-12-31T17:28:01.475Z,14.60
2022-12-31T17:30:36.915Z,14.60
2022-12-31T17:32:39.817Z,14.50
2022-12-31T17:34:50.111Z,14.50
2022-12-31T17:37:17.479Z,14.50
2022-12-31T17:39:22.647Z,14.60
2022-12-31T17:41:28.545Z,14.60
2022-12-31T17:43:35.811Z,14.50
2022-12-31T17:45:39.525Z,14.50
2022-12-31T17:47:47.975Z,14.60
2022-12-31T17:49:50.801Z,14.60
2022-12-31T17:51:53.620Z,14.60
2022-12-31T17:53:56.332Z,14.60
2022-12-31T17:56:03.027Z,14.60
2022-12-31T17:58:08.130Z,14.60
2022-12-31T18:00:20.037Z,14.60
2022-12-31T18:02:25.813Z,14.60
2022-12-31T18:04:28.849Z,14.60
2022-12-31T18:06:31.824Z,14.60
2022-12-31T18:08:34.818Z,14.60
2022-12-31T18:10:39.548Z,14.60
2022-12-31T18:12:42.794Z,14.60
2022-12-31T18:14:46.922Z,14.70
2022-12-31T18:16:49.765Z,14.70
2022-12-31T18:18:52.519Z,14.70
2022-12-31T18:20:57.438Z,14.70
2022-12-31T18:23:00.328Z,14.70
2022-12-31T18:25:07.120Z,14.60
2022-12-31T18:27:19.952Z,14.50
2022-12-31T18:29:25.837Z,14.50
2022-12-31T18:31:31.713Z,14.50
2022-12-31T18:33:34.606Z,14.50
2022-12-31T18:38:00.258Z,14.50
2022-12-31T18:40:03.661Z,14.60
2022-12-31T18:42:07.004Z,14.70
2022-12-31T18:44:17.110Z,14.70
2022-12-31T18:46:24.931Z,14.70
2022-12-31T18:48:29.234Z,14.80
2022-12-31T18:50:32.117Z,14.80
2022-12-31T18:52:34.880Z,14.80
2022-12-31T18:54:37.582Z,14.80
2022-12-31T18:56:46.543Z,14.70
2022-12-31T18:58:50.480Z,14.70
2022-12-31T19:00:53.301Z,14.70
2022-12-31T19:02:56.048Z,14.70
2022-12-31T19:05:00.203Z,14.60
2022-12-31T19:07:02.927Z,14.60
2022-12-31T19:09:13.166Z,14.60
2022-12-31T19:11:28.717Z,14.50
2022-12-31T19:13:31.549Z,14.40
2022-12-31T19:15:45.492Z,14.40
2022-12-31T19:17:48.250Z,14.30
2022-12-31T19:19:50.977Z,14.30
2022-12-31T19:22:01.721Z,14.30
2022-12-31T19:24:12.671Z,14.40
2022-12-31T19:26:17.771Z,14.40
2022-12-31T19:28:22.828Z,14.40
2022-12-31T19:30:28.767Z,14.40
2022-12-31T19:32:31.534Z,14.40
2022-12-31T19:34:34.289Z,14.40
2022-12-31T19:36:43.580Z,14.40
2022-12-31T19:38:48.187Z,14.30
2022-12-31T19:40:52.557Z,14.30
2022-12-31T19:42:57.360Z,14.30
2022-12-31T19:45:00.721Z,14.20
2022-12-31T19:47:03.855Z,14.30
2022-12-31T19:49:06.581Z,14.20
2022-12-31T19:51:13.733Z,14.20
2022-12-31T19:53:23.201Z,14.20
2022-12-31T19:55:27.810Z,14.20
2022-12-31T19:57:30.534Z,14.20
2022-12-31T19:59:33.485Z,14.20
2022-12-31T20:01:36.385Z,14.20
2022-12-31T20:03:39.258Z,14.30
2022-12-31T20:05:51.329Z,14.20
2022-12-31T20:08:00.150Z,14.20
2022-12-31T20:10:04.633Z,14.20
2022-12-31T20:12:08.925Z,14.10
2022-12-31T20:14:11.845Z,14.10
2022-12-31T20:16:20.446Z,14.00
2022-12-31T20:18:23.294Z,14.00
2022-12-31T20:20:28.960Z,13.90
2022-12-31T20:22:31.884Z,13.80
2022-12-31T20:24:40.579Z,13.80
2022-12-31T20:26:43.309Z,13.70
2022-12-31T20:28:47.703Z,13.60
2022-12-31T20:30:50.446Z,13.50
2022-12-31T20:32:54.903Z,13.40
2022-12-31T20:34:57.682Z,13.40
2022-12-31T20:37:00.407Z,13.40
2022-12-31T20:39:03.532Z,13.30
2022-12-31T20:41:08.071Z,13.30
2022-12-31T20:43:10.794Z,13.30
2022-12-31T20:45:15.016Z,13.20
2022-12-31T20:47:17.756Z,13.20
2022-12-31T20:50:00.817Z,13.20
2022-12-31T20:51:53.008Z,13.30
2022-12-31T20:53:57.415Z,13.30
2022-12-31T20:56:04.850Z,13.30
2022-12-31T20:58:09.877Z,13.30
2022-12-31T21:00:15.386Z,13.40
2022-12-31T21:02:26.539Z,13.40
2022-12-31T21:04:55.857Z,13.40
2022-12-31T21:06:58.684Z,13.40
2022-12-31T21:09:02.687Z,13.50
2022-12-31T21:11:26.500Z,13.60
2022-12-31T21:13:30.990Z,13.70
2022-12-31T21:15:37.507Z,13.80
2022-12-31T21:17:43.638Z,14.00
2022-12-31T21:19:47.365Z,14.00
2022-12-31T21:21:50.116Z,14.00
2022-12-31T21:23:55.343Z,14.00
2022-12-31T21:25:58.334Z,14.00
2022-12-31T21:28:08.313Z,14.00
2022-12-31T21:30:20.586Z,14.00
2022-12-31T21:32:24.856Z,13.90
2022-12-31T21:34:27.548Z,13.90
2022-12-31T21:36:30.324Z,13.90
2022-12-31T21:38:37.291Z,13.90
2022-12-31T21:40:40.222Z,13.90
2022-12-31T21:42:43.226Z,13.90
2022-12-31T21:44:45.975Z,13.90
2022-12-31T21:47:25.216Z,13.90
2022-12-31T21:49:13.028Z,13.90
2022-12-31T21:51:17.201Z,13.90
2022-12-31T21:53:26.237Z,13.90
2022-12-31T21:55:48.239Z,13.90
2022-12-31T21:58:24.884Z,13.90
2022-12-31T22:00:42.313Z,13.80
2022-12-31T22:03:03.450Z,13.80
2022-12-31T22:05:14.990Z,13.80
2022-12-31T22:07:21.505Z,13.80
2022-12-31T22:09:24.269Z,13.70
2022-12-31T22:11:29.033Z,13.70
2022-12-31T22:13:31.878Z,13.60
2022-12-31T22:15:34.702Z,13.70
2022-12-31T22:17:37.438Z,13.60
2022-12-31T22:20:00.846Z,13.60
2022-12-31T22:22:07.460Z,13.50
2022-12-31T22:24:10.462Z,13.50
2022-12-31T22:26:15.901Z,13.50
2022-12-31T22:30:41.507Z,13.50
2022-12-31T22:32:44.326Z,13.50
2022-12-31T22:34:47.129Z,13.50
2022-12-31T22:36:49.838Z,13.50
2022-12-31T22:38:58.185Z,13.50
2022-12-31T22:41:05.869Z,13.50
2022-12-31T22:43:08.614Z,13.50
2022-12-31T22:45:12.153Z,13.40
2022-12-31T22:47:15.107Z,13.40
2022-12-31T22:49:19.912Z,13.30
2022-12-31T22:51:22.654Z,13.40
2022-12-31T22:53:25.562Z,13.40
2022-12-31T22:55:29.694Z,13.30
2022-12-31T22:57:32.462Z,13.30
2022-12-31T22:59:35.242Z,13.30
2022-12-31T23:01:38.557Z,13.20
2022-12-31T23:03:42.189Z,13.20
2022-12-31T23:05:47.239Z,13.20
2022-12-31T23:07:50.012Z,13.20
2022-12-31T23:10:10.232Z,13.10
2022-12-31T23:12:16.900Z,13.10
2022-12-31T23:14:42.345Z,13.10
2022-12-31T23:17:29.521Z,13.00
2022-12-31T23:19:46.906Z,13.00
2022-12-31T23:22:07.322Z,13.00
2022-12-31T23:24:19.032Z,13.00
2022-12-31T23:26:24.649Z,13.00
2022-12-31T23:28:44.135Z,13.00
2022-12-31T23:30:47.360Z,13.00
2022-12-31T23:32:50.139Z,13.00
2022-12-31T23:34:53.354Z,12.90
2022-12-31T23:36:56.065Z,13.00
2022-12-31T23:38:58.828Z,12.90
2022-12-31T23:41:01.556Z,12.90
2022-12-31T23:43:09.557Z,12.90
2022-12-31T23:45:13.752Z,12.90
2022-12-31T23:47:16.463Z,12.80
2022-12-31T23:49:19.173Z,12.80
2022-12-31T23:51:22.197Z,12.80
2022-12-31T23:53:25.429Z,12.70
2022-12-31T23:55:28.370Z,12.70
2022-12-31T23:57:31.097Z,12.70
2022-12-31T23:59:34.016Z,12.80
